sensor_id;sensor_type;location;lat;lon;timestamp;P1;durP1;ratioP1;P2;durP2;ratioP2
6348;SDS011;3207;42.648;23.406;2023-06-24T00:00:40;6.85;;;3.60;;
6348;SDS011;3207;42.648;23.406;2023-06-24T00:03:06;5.88;;;3.42;;
6348;SDS011;3207;42.648;23.406;2023-06-24T00:05:34;5.30;;;3.75;;
6348;SDS011;3207;42.648;23.406;2023-06-24T00:08:02;4.68;;;3.75;;
6348;SDS011;3207;42.648;23.406;2023-06-24T00:10:32;4.45;;;3.60;;
6348;SDS011;3207;42.648;23.406;2023-06-24T00:12:58;4.25;;;3.60;;
6348;SDS011;3207;42.648;23.406;2023-06-24T00:15:26;4.65;;;3.80;;
6348;SDS011;3207;42.648;23.406;2023-06-24T00:17:53;5.47;;;3.58;;
6348;SDS011;3207;42.648;23.406;2023-06-24T00:20:31;3.95;;;3.50;;
6348;SDS011;3207;42.648;23.406;2023-06-24T00:22:58;8.07;;;4.50;;
6348;SDS011;3207;42.648;23.406;2023-06-24T00:25:26;4.28;;;3.28;;
6348;SDS011;3207;42.648;23.406;2023-06-24T00:27:53;6.43;;;3.85;;
6348;SDS011;3207;42.648;23.406;2023-06-24T00:30:19;7.43;;;3.78;;
6348;SDS011;3207;42.648;23.406;2023-06-24T00:32:47;7.63;;;3.95;;
6348;SDS011;3207;42.648;23.406;2023-06-24T00:35:14;6.85;;;3.67;;
6348;SDS011;3207;42.648;23.406;2023-06-24T00:37:41;5.78;;;3.72;;
6348;SDS011;3207;42.648;23.406;2023-06-24T00:40:10;5.10;;;3.88;;
6348;SDS011;3207;42.648;23.406;2023-06-24T00:42:41;4.68;;;3.60;;
6348;SDS011;3207;42.648;23.406;2023-06-24T00:45:10;7.20;;;3.90;;
6348;SDS011;3207;42.648;23.406;2023-06-24T00:47:37;6.15;;;3.53;;
6348;SDS011;3207;42.648;23.406;2023-06-24T00:50:05;7.90;;;3.75;;
6348;SDS011;3207;42.648;23.406;2023-06-24T00:52:32;4.25;;;3.80;;
6348;SDS011;3207;42.648;23.406;2023-06-24T00:55:02;5.00;;;3.58;;
6348;SDS011;3207;42.648;23.406;2023-06-24T00:57:29;7.10;;;3.50;;
6348;SDS011;3207;42.648;23.406;2023-06-24T00:59:57;7.45;;;3.65;;
6348;SDS011;3207;42.648;23.406;2023-06-24T01:02:25;6.78;;;4.40;;
6348;SDS011;3207;42.648;23.406;2023-06-24T01:04:53;5.20;;;3.80;;
6348;SDS011;3207;42.648;23.406;2023-06-24T01:07:20;3.60;;;3.20;;
6348;SDS011;3207;42.648;23.406;2023-06-24T01:09:47;5.57;;;3.90;;
6348;SDS011;3207;42.648;23.406;2023-06-24T01:12:15;4.88;;;3.60;;
6348;SDS011;3207;42.648;23.406;2023-06-24T01:14:41;5.95;;;3.47;;
6348;SDS011;3207;42.648;23.406;2023-06-24T01:17:11;6.07;;;3.95;;
6348;SDS011;3207;42.648;23.406;2023-06-24T01:22:48;4.72;;;3.85;;
6348;SDS011;3207;42.648;23.406;2023-06-24T01:25:43;7.20;;;3.78;;
6348;SDS011;3207;42.648;23.406;2023-06-24T01:28:41;4.85;;;3.20;;
6348;SDS011;3207;42.648;23.406;2023-06-24T01:31:35;7.22;;;3.22;;
6348;SDS011;3207;42.648;23.406;2023-06-24T01:34:06;6.10;;;3.47;;
6348;SDS011;3207;42.648;23.406;2023-06-24T01:36:40;7.20;;;3.72;;
6348;SDS011;3207;42.648;23.406;2023-06-24T01:39:16;4.70;;;3.70;;
6348;SDS011;3207;42.648;23.406;2023-06-24T01:41:46;3.97;;;3.55;;
6348;SDS011;3207;42.648;23.406;2023-06-24T01:44:21;6.53;;;3.60;;
6348;SDS011;3207;42.648;23.406;2023-06-24T01:46:52;7.63;;;4.32;;
6348;SDS011;3207;42.648;23.406;2023-06-24T01:49:23;6.57;;;3.72;;
6348;SDS011;3207;42.648;23.406;2023-06-24T01:51:55;4.05;;;3.65;;
6348;SDS011;3207;42.648;23.406;2023-06-24T01:54:23;9.15;;;4.15;;
6348;SDS011;3207;42.648;23.406;2023-06-24T01:56:52;4.35;;;3.35;;
6348;SDS011;3207;42.648;23.406;2023-06-24T01:59:22;5.75;;;4.25;;
6348;SDS011;3207;42.648;23.406;2023-06-24T02:01:52;7.75;;;3.95;;
6348;SDS011;3207;42.648;23.406;2023-06-24T02:04:20;5.45;;;3.63;;
6348;SDS011;3207;42.648;23.406;2023-06-24T02:06:49;6.10;;;3.83;;
6348;SDS011;3207;42.648;23.406;2023-06-24T02:09:19;6.15;;;3.83;;
6348;SDS011;3207;42.648;23.406;2023-06-24T02:11:47;5.32;;;3.67;;
6348;SDS011;3207;42.648;23.406;2023-06-24T02:14:15;5.45;;;4.25;;
6348;SDS011;3207;42.648;23.406;2023-06-24T02:16:44;6.50;;;3.80;;
6348;SDS011;3207;42.648;23.406;2023-06-24T02:19:15;7.47;;;4.38;;
6348;SDS011;3207;42.648;23.406;2023-06-24T02:21:43;9.70;;;4.13;;
6348;SDS011;3207;42.648;23.406;2023-06-24T02:24:11;4.65;;;3.75;;
6348;SDS011;3207;42.648;23.406;2023-06-24T02:26:39;4.93;;;4.10;;
6348;SDS011;3207;42.648;23.406;2023-06-24T02:29:06;7.18;;;4.10;;
6348;SDS011;3207;42.648;23.406;2023-06-24T02:31:36;4.80;;;3.47;;
6348;SDS011;3207;42.648;23.406;2023-06-24T02:34:03;6.78;;;4.25;;
6348;SDS011;3207;42.648;23.406;2023-06-24T02:36:32;4.22;;;3.65;;
6348;SDS011;3207;42.648;23.406;2023-06-24T02:38:58;4.10;;;3.67;;
6348;SDS011;3207;42.648;23.406;2023-06-24T02:41:25;3.80;;;3.50;;
6348;SDS011;3207;42.648;23.406;2023-06-24T02:43:53;5.25;;;4.15;;
6348;SDS011;3207;42.648;23.406;2023-06-24T02:46:20;4.90;;;4.13;;
6348;SDS011;3207;42.648;23.406;2023-06-24T02:48:48;6.68;;;3.80;;
6348;SDS011;3207;42.648;23.406;2023-06-24T02:51:17;6.38;;;3.78;;
6348;SDS011;3207;42.648;23.406;2023-06-24T02:53:46;6.32;;;4.10;;
6348;SDS011;3207;42.648;23.406;2023-06-24T02:56:13;6.18;;;4.20;;
6348;SDS011;3207;42.648;23.406;2023-06-24T02:58:45;6.13;;;4.20;;
6348;SDS011;3207;42.648;23.406;2023-06-24T03:01:13;4.35;;;3.97;;
6348;SDS011;3207;42.648;23.406;2023-06-24T03:03:40;4.72;;;4.05;;
6348;SDS011;3207;42.648;23.406;2023-06-24T03:06:08;7.07;;;4.57;;
6348;SDS011;3207;42.648;23.406;2023-06-24T03:08:37;4.57;;;4.18;;
6348;SDS011;3207;42.648;23.406;2023-06-24T03:11:06;4.85;;;3.95;;
6348;SDS011;3207;42.648;23.406;2023-06-24T03:13:33;6.65;;;4.18;;
6348;SDS011;3207;42.648;23.406;2023-06-24T03:16:00;5.40;;;4.55;;
6348;SDS011;3207;42.648;23.406;2023-06-24T03:18:27;7.28;;;4.60;;
6348;SDS011;3207;42.648;23.406;2023-06-24T03:20:54;11.38;;;4.93;;
6348;SDS011;3207;42.648;23.406;2023-06-24T03:23:21;5.95;;;4.93;;
6348;SDS011;3207;42.648;23.406;2023-06-24T03:25:47;7.00;;;4.18;;
6348;SDS011;3207;42.648;23.406;2023-06-24T03:28:15;5.15;;;4.13;;
6348;SDS011;3207;42.648;23.406;2023-06-24T03:30:42;4.68;;;4.25;;
6348;SDS011;3207;42.648;23.406;2023-06-24T03:33:09;6.20;;;4.93;;
6348;SDS011;3207;42.648;23.406;2023-06-24T03:35:36;8.23;;;4.72;;
6348;SDS011;3207;42.648;23.406;2023-06-24T03:38:03;7.15;;;5.32;;
6348;SDS011;3207;42.648;23.406;2023-06-24T03:40:29;8.25;;;4.97;;
6348;SDS011;3207;42.648;23.406;2023-06-24T03:42:57;6.47;;;4.95;;
6348;SDS011;3207;42.648;23.406;2023-06-24T03:45:25;6.15;;;5.15;;
6348;SDS011;3207;42.648;23.406;2023-06-24T03:47:52;5.63;;;5.07;;
6348;SDS011;3207;42.648;23.406;2023-06-24T03:50:19;5.20;;;4.70;;
6348;SDS011;3207;42.648;23.406;2023-06-24T03:52:46;5.80;;;4.63;;
6348;SDS011;3207;42.648;23.406;2023-06-24T03:55:13;6.03;;;5.20;;
6348;SDS011;3207;42.648;23.406;2023-06-24T03:57:40;5.70;;;5.07;;
6348;SDS011;3207;42.648;23.406;2023-06-24T04:00:07;8.07;;;5.00;;
6348;SDS011;3207;42.648;23.406;2023-06-24T04:02:41;9.65;;;6.13;;
6348;SDS011;3207;42.648;23.406;2023-06-24T04:05:08;7.95;;;5.25;;
6348;SDS011;3207;42.648;23.406;2023-06-24T04:07:35;6.00;;;5.38;;
6348;SDS011;3207;42.648;23.406;2023-06-24T04:10:03;5.90;;;5.13;;
6348;SDS011;3207;42.648;23.406;2023-06-24T04:12:33;6.97;;;5.95;;
6348;SDS011;3207;42.648;23.406;2023-06-24T04:15:00;6.93;;;5.90;;
6348;SDS011;3207;42.648;23.406;2023-06-24T04:17:28;8.70;;;6.40;;
6348;SDS011;3207;42.648;23.406;2023-06-24T04:19:56;9.45;;;6.80;;
6348;SDS011;3207;42.648;23.406;2023-06-24T04:22:24;7.30;;;5.15;;
6348;SDS011;3207;42.648;23.406;2023-06-24T04:24:51;6.43;;;5.60;;
6348;SDS011;3207;42.648;23.406;2023-06-24T04:27:18;7.28;;;5.30;;
6348;SDS011;3207;42.648;23.406;2023-06-24T04:29:45;9.80;;;6.15;;
6348;SDS011;3207;42.648;23.406;2023-06-24T04:32:12;6.45;;;5.15;;
6348;SDS011;3207;42.648;23.406;2023-06-24T04:34:39;8.80;;;5.85;;
6348;SDS011;3207;42.648;23.406;2023-06-24T04:37:07;7.03;;;4.68;;
6348;SDS011;3207;42.648;23.406;2023-06-24T04:39:34;8.07;;;5.72;;
6348;SDS011;3207;42.648;23.406;2023-06-24T04:42:01;5.82;;;4.93;;
6348;SDS011;3207;42.648;23.406;2023-06-24T04:44:29;6.82;;;5.50;;
6348;SDS011;3207;42.648;23.406;2023-06-24T04:46:55;5.13;;;4.63;;
6348;SDS011;3207;42.648;23.406;2023-06-24T04:49:22;6.03;;;5.35;;
6348;SDS011;3207;42.648;23.406;2023-06-24T04:51:49;5.43;;;4.55;;
6348;SDS011;3207;42.648;23.406;2023-06-24T04:54:17;6.60;;;5.57;;
6348;SDS011;3207;42.648;23.406;2023-06-24T04:56:44;6.88;;;5.75;;
6348;SDS011;3207;42.648;23.406;2023-06-24T04:59:13;6.50;;;5.70;;
6348;SDS011;3207;42.648;23.406;2023-06-24T05:01:40;5.85;;;5.32;;
6348;SDS011;3207;42.648;23.406;2023-06-24T05:04:07;4.82;;;4.43;;
6348;SDS011;3207;42.648;23.406;2023-06-24T05:06:33;5.45;;;4.95;;
6348;SDS011;3207;42.648;23.406;2023-06-24T05:09:00;7.18;;;5.05;;
6348;SDS011;3207;42.648;23.406;2023-06-24T05:11:29;6.30;;;5.68;;
6348;SDS011;3207;42.648;23.406;2023-06-24T05:13:55;7.38;;;6.15;;
6348;SDS011;3207;42.648;23.406;2023-06-24T05:16:23;5.75;;;5.18;;
6348;SDS011;3207;42.648;23.406;2023-06-24T05:18:50;7.93;;;5.05;;
6348;SDS011;3207;42.648;23.406;2023-06-24T05:21:17;6.43;;;5.32;;
6348;SDS011;3207;42.648;23.406;2023-06-24T05:23:43;5.80;;;5.22;;
6348;SDS011;3207;42.648;23.406;2023-06-24T05:26:10;7.40;;;5.68;;
6348;SDS011;3207;42.648;23.406;2023-06-24T05:28:38;8.05;;;6.05;;
6348;SDS011;3207;42.648;23.406;2023-06-24T05:31:05;8.10;;;6.20;;
6348;SDS011;3207;42.648;23.406;2023-06-24T05:33:32;6.15;;;5.55;;
6348;SDS011;3207;42.648;23.406;2023-06-24T05:35:59;7.68;;;5.28;;
6348;SDS011;3207;42.648;23.406;2023-06-24T05:38:26;6.72;;;5.55;;
6348;SDS011;3207;42.648;23.406;2023-06-24T05:40:53;7.30;;;5.43;;
6348;SDS011;3207;42.648;23.406;2023-06-24T05:43:20;7.40;;;5.18;;
6348;SDS011;3207;42.648;23.406;2023-06-24T05:45:48;6.07;;;5.53;;
6348;SDS011;3207;42.648;23.406;2023-06-24T05:48:15;8.02;;;5.70;;
6348;SDS011;3207;42.648;23.406;2023-06-24T05:50:42;6.55;;;5.43;;
6348;SDS011;3207;42.648;23.406;2023-06-24T05:53:09;6.13;;;5.53;;
6348;SDS011;3207;42.648;23.406;2023-06-24T05:55:36;8.15;;;6.45;;
6348;SDS011;3207;42.648;23.406;2023-06-24T05:58:02;6.22;;;5.63;;
6348;SDS011;3207;42.648;23.406;2023-06-24T06:00:29;8.68;;;6.13;;
6348;SDS011;3207;42.648;23.406;2023-06-24T06:02:58;12.80;;;6.45;;
6348;SDS011;3207;42.648;23.406;2023-06-24T06:05:24;9.10;;;7.03;;
6348;SDS011;3207;42.648;23.406;2023-06-24T06:07:52;8.50;;;7.00;;
6348;SDS011;3207;42.648;23.406;2023-06-24T06:10:19;8.32;;;6.93;;
6348;SDS011;3207;42.648;23.406;2023-06-24T06:12:46;10.00;;;7.03;;
6348;SDS011;3207;42.648;23.406;2023-06-24T06:15:13;7.68;;;6.55;;
6348;SDS011;3207;42.648;23.406;2023-06-24T06:17:40;8.50;;;7.53;;
6348;SDS011;3207;42.648;23.406;2023-06-24T06:20:09;11.63;;;7.13;;
6348;SDS011;3207;42.648;23.406;2023-06-24T06:22:36;7.78;;;6.47;;
6348;SDS011;3207;42.648;23.406;2023-06-24T06:25:04;9.68;;;7.88;;
6348;SDS011;3207;42.648;23.406;2023-06-24T06:27:31;9.77;;;7.18;;
6348;SDS011;3207;42.648;23.406;2023-06-24T06:29:58;8.18;;;7.05;;
6348;SDS011;3207;42.648;23.406;2023-06-24T06:32:25;13.50;;;6.97;;
6348;SDS011;3207;42.648;23.406;2023-06-24T06:34:52;7.60;;;6.72;;
6348;SDS011;3207;42.648;23.406;2023-06-24T06:37:20;11.77;;;8.10;;
6348;SDS011;3207;42.648;23.406;2023-06-24T06:39:47;9.07;;;7.00;;
6348;SDS011;3207;42.648;23.406;2023-06-24T06:42:15;7.20;;;6.47;;
6348;SDS011;3207;42.648;23.406;2023-06-24T06:44:42;10.30;;;6.82;;
6348;SDS011;3207;42.648;23.406;2023-06-24T06:47:10;7.18;;;6.45;;
6348;SDS011;3207;42.648;23.406;2023-06-24T06:49:37;15.30;;;5.93;;
6348;SDS011;3207;42.648;23.406;2023-06-24T06:52:04;7.10;;;6.50;;
6348;SDS011;3207;42.648;23.406;2023-06-24T06:54:33;7.28;;;6.57;;
6348;SDS011;3207;42.648;23.406;2023-06-24T06:57:00;7.85;;;6.68;;
6348;SDS011;3207;42.648;23.406;2023-06-24T06:59:27;11.95;;;7.82;;
6348;SDS011;3207;42.648;23.406;2023-06-24T07:01:54;8.68;;;7.13;;
6348;SDS011;3207;42.648;23.406;2023-06-24T07:04:21;9.85;;;6.70;;
6348;SDS011;3207;42.648;23.406;2023-06-24T07:06:48;6.65;;;5.68;;
6348;SDS011;3207;42.648;23.406;2023-06-24T07:09:15;7.10;;;5.75;;
6348;SDS011;3207;42.648;23.406;2023-06-24T07:11:44;6.28;;;5.40;;
6348;SDS011;3207;42.648;23.406;2023-06-24T07:14:11;8.07;;;6.55;;
6348;SDS011;3207;42.648;23.406;2023-06-24T07:16:38;7.35;;;6.65;;
6348;SDS011;3207;42.648;23.406;2023-06-24T07:19:04;8.48;;;6.28;;
6348;SDS011;3207;42.648;23.406;2023-06-24T07:21:31;7.60;;;6.90;;
6348;SDS011;3207;42.648;23.406;2023-06-24T07:23:58;8.73;;;6.50;;
6348;SDS011;3207;42.648;23.406;2023-06-24T07:26:25;7.80;;;5.78;;
6348;SDS011;3207;42.648;23.406;2023-06-24T07:28:55;6.72;;;6.03;;
6348;SDS011;3207;42.648;23.406;2023-06-24T07:31:22;9.75;;;6.63;;
6348;SDS011;3207;42.648;23.406;2023-06-24T07:33:49;7.05;;;6.38;;
6348;SDS011;3207;42.648;23.406;2023-06-24T07:36:16;7.95;;;6.68;;
6348;SDS011;3207;42.648;23.406;2023-06-24T07:38:43;11.07;;;6.65;;
6348;SDS011;3207;42.648;23.406;2023-06-24T07:41:10;12.23;;;5.93;;
6348;SDS011;3207;42.648;23.406;2023-06-24T07:43:37;6.88;;;6.22;;
6348;SDS011;3207;42.648;23.406;2023-06-24T07:46:06;13.95;;;7.15;;
6348;SDS011;3207;42.648;23.406;2023-06-24T07:48:33;6.45;;;5.85;;
6348;SDS011;3207;42.648;23.406;2023-06-24T07:51:00;7.97;;;7.13;;
6348;SDS011;3207;42.648;23.406;2023-06-24T07:53:27;8.73;;;6.63;;
6348;SDS011;3207;42.648;23.406;2023-06-24T07:55:53;6.35;;;5.43;;
6348;SDS011;3207;42.648;23.406;2023-06-24T07:58:20;10.45;;;6.35;;
6348;SDS011;3207;42.648;23.406;2023-06-24T08:00:47;6.00;;;5.40;;
6348;SDS011;3207;42.648;23.406;2023-06-24T08:03:15;7.10;;;6.13;;
6348;SDS011;3207;42.648;23.406;2023-06-24T08:05:42;6.60;;;5.22;;
6348;SDS011;3207;42.648;23.406;2023-06-24T08:08:09;6.88;;;6.20;;
6348;SDS011;3207;42.648;23.406;2023-06-24T08:10:36;9.13;;;5.72;;
6348;SDS011;3207;42.648;23.406;2023-06-24T08:13:02;11.10;;;6.15;;
6348;SDS011;3207;42.648;23.406;2023-06-24T08:15:29;7.80;;;6.28;;
6348;SDS011;3207;42.648;23.406;2023-06-24T08:17:56;7.78;;;5.93;;
6348;SDS011;3207;42.648;23.406;2023-06-24T08:20:25;7.75;;;6.40;;
6348;SDS011;3207;42.648;23.406;2023-06-24T08:22:52;7.07;;;5.75;;
6348;SDS011;3207;42.648;23.406;2023-06-24T08:25:19;8.20;;;6.47;;
6348;SDS011;3207;42.648;23.406;2023-06-24T08:27:46;9.10;;;6.35;;
6348;SDS011;3207;42.648;23.406;2023-06-24T08:30:12;6.80;;;5.90;;
6348;SDS011;3207;42.648;23.406;2023-06-24T08:32:40;6.22;;;5.72;;
6348;SDS011;3207;42.648;23.406;2023-06-24T08:35:07;8.48;;;6.72;;
6348;SDS011;3207;42.648;23.406;2023-06-24T08:37:36;7.10;;;6.00;;
6348;SDS011;3207;42.648;23.406;2023-06-24T08:40:04;7.53;;;5.95;;
6348;SDS011;3207;42.648;23.406;2023-06-24T08:42:31;7.80;;;6.55;;
6348;SDS011;3207;42.648;23.406;2023-06-24T08:44:58;7.28;;;6.68;;
6348;SDS011;3207;42.648;23.406;2023-06-24T08:47:25;9.18;;;6.40;;
6348;SDS011;3207;42.648;23.406;2023-06-24T08:50:02;7.18;;;6.47;;
6348;SDS011;3207;42.648;23.406;2023-06-24T08:52:32;7.25;;;6.65;;
6348;SDS011;3207;42.648;23.406;2023-06-24T08:55:04;7.05;;;6.45;;
6348;SDS011;3207;42.648;23.406;2023-06-24T08:57:32;8.10;;;5.78;;
6348;SDS011;3207;42.648;23.406;2023-06-24T08:59:59;8.43;;;5.90;;
6348;SDS011;3207;42.648;23.406;2023-06-24T09:02:26;7.50;;;6.60;;
6348;SDS011;3207;42.648;23.406;2023-06-24T09:04:54;10.00;;;6.18;;
6348;SDS011;3207;42.648;23.406;2023-06-24T09:07:25;7.55;;;6.10;;
6348;SDS011;3207;42.648;23.406;2023-06-24T09:09:53;8.55;;;6.88;;
6348;SDS011;3207;42.648;23.406;2023-06-24T09:12:23;7.25;;;6.65;;
6348;SDS011;3207;42.648;23.406;2023-06-24T09:14:50;7.50;;;6.50;;
6348;SDS011;3207;42.648;23.406;2023-06-24T09:17:18;7.55;;;6.88;;
6348;SDS011;3207;42.648;23.406;2023-06-24T09:19:47;8.35;;;7.10;;
6348;SDS011;3207;42.648;23.406;2023-06-24T09:22:16;7.05;;;6.22;;
6348;SDS011;3207;42.648;23.406;2023-06-24T09:24:44;8.13;;;7.00;;
6348;SDS011;3207;42.648;23.406;2023-06-24T09:27:12;10.25;;;7.78;;
6348;SDS011;3207;42.648;23.406;2023-06-24T09:29:42;9.18;;;7.25;;
6348;SDS011;3207;42.648;23.406;2023-06-24T09:32:09;6.75;;;6.15;;
6348;SDS011;3207;42.648;23.406;2023-06-24T09:34:37;5.90;;;5.47;;
6348;SDS011;3207;42.648;23.406;2023-06-24T09:37:04;6.78;;;6.10;;
6348;SDS011;3207;42.648;23.406;2023-06-24T09:39:35;7.68;;;6.10;;
6348;SDS011;3207;42.648;23.406;2023-06-24T09:42:03;6.28;;;5.68;;
6348;SDS011;3207;42.648;23.406;2023-06-24T09:44:32;10.18;;;6.43;;
6348;SDS011;3207;42.648;23.406;2023-06-24T09:47:01;9.02;;;6.13;;
6348;SDS011;3207;42.648;23.406;2023-06-24T09:49:28;8.65;;;6.43;;
6348;SDS011;3207;42.648;23.406;2023-06-24T09:51:56;7.55;;;6.20;;
6348;SDS011;3207;42.648;23.406;2023-06-24T09:54:24;7.22;;;6.57;;
6348;SDS011;3207;42.648;23.406;2023-06-24T09:56:54;9.85;;;6.55;;
6348;SDS011;3207;42.648;23.406;2023-06-24T09:59:25;7.45;;;6.78;;
6348;SDS011;3207;42.648;23.406;2023-06-24T10:01:54;6.97;;;6.40;;
6348;SDS011;3207;42.648;23.406;2023-06-24T10:04:24;7.43;;;6.47;;
6348;SDS011;3207;42.648;23.406;2023-06-24T10:06:54;6.72;;;6.13;;
6348;SDS011;3207;42.648;23.406;2023-06-24T10:09:21;7.22;;;6.50;;
6348;SDS011;3207;42.648;23.406;2023-06-24T10:11:48;7.60;;;6.80;;
6348;SDS011;3207;42.648;23.406;2023-06-24T10:14:15;7.82;;;7.00;;
6348;SDS011;3207;42.648;23.406;2023-06-24T10:16:43;7.30;;;6.70;;
6348;SDS011;3207;42.648;23.406;2023-06-24T10:19:13;7.47;;;6.80;;
6348;SDS011;3207;42.648;23.406;2023-06-24T10:21:50;6.68;;;6.07;;
6348;SDS011;3207;42.648;23.406;2023-06-24T10:24:30;7.53;;;6.80;;
6348;SDS011;3207;42.648;23.406;2023-06-24T10:27:02;7.13;;;6.50;;
6348;SDS011;3207;42.648;23.406;2023-06-24T10:29:33;6.63;;;5.97;;
6348;SDS011;3207;42.648;23.406;2023-06-24T10:32:04;7.38;;;5.57;;
6348;SDS011;3207;42.648;23.406;2023-06-24T10:34:33;7.13;;;6.32;;
6348;SDS011;3207;42.648;23.406;2023-06-24T10:37:02;7.03;;;6.25;;
6348;SDS011;3207;42.648;23.406;2023-06-24T10:42:32;6.75;;;6.10;;
6348;SDS011;3207;42.648;23.406;2023-06-24T10:45:12;6.50;;;5.90;;
6348;SDS011;3207;42.648;23.406;2023-06-24T10:47:49;6.38;;;5.82;;
6348;SDS011;3207;42.648;23.406;2023-06-24T10:50:18;6.60;;;6.00;;
6348;SDS011;3207;42.648;23.406;2023-06-24T10:52:53;7.90;;;6.30;;
6348;SDS011;3207;42.648;23.406;2023-06-24T10:55:21;7.50;;;5.68;;
6348;SDS011;3207;42.648;23.406;2023-06-24T10:57:49;6.40;;;5.90;;
6348;SDS011;3207;42.648;23.406;2023-06-24T11:00:16;6.53;;;5.90;;
6348;SDS011;3207;42.648;23.406;2023-06-24T11:02:43;6.43;;;5.63;;
6348;SDS011;3207;42.648;23.406;2023-06-24T11:05:10;6.50;;;5.72;;
6348;SDS011;3207;42.648;23.406;2023-06-24T11:07:38;6.10;;;5.50;;
6348;SDS011;3207;42.648;23.406;2023-06-24T11:10:07;5.82;;;5.43;;
6348;SDS011;3207;42.648;23.406;2023-06-24T11:12:37;6.43;;;5.82;;
6348;SDS011;3207;42.648;23.406;2023-06-24T11:15:05;7.15;;;5.57;;
6348;SDS011;3207;42.648;23.406;2023-06-24T11:17:33;5.63;;;5.13;;
6348;SDS011;3207;42.648;23.406;2023-06-24T11:20:01;6.00;;;5.03;;
6348;SDS011;3207;42.648;23.406;2023-06-24T11:22:28;6.45;;;5.70;;
6348;SDS011;3207;42.648;23.406;2023-06-24T11:24:55;5.63;;;4.95;;
6348;SDS011;3207;42.648;23.406;2023-06-24T11:27:27;5.72;;;5.18;;
6348;SDS011;3207;42.648;23.406;2023-06-24T11:29:55;5.38;;;4.72;;
6348;SDS011;3207;42.648;23.406;2023-06-24T11:32:34;6.97;;;5.00;;
6348;SDS011;3207;42.648;23.406;2023-06-24T11:35:01;5.13;;;4.70;;
6348;SDS011;3207;42.648;23.406;2023-06-24T11:37:30;7.55;;;6.88;;
6348;SDS011;3207;42.648;23.406;2023-06-24T11:40:01;5.18;;;4.32;;
6348;SDS011;3207;42.648;23.406;2023-06-24T11:42:32;3.53;;;3.22;;
6348;SDS011;3207;42.648;23.406;2023-06-24T11:45:02;5.45;;;3.88;;
6348;SDS011;3207;42.648;23.406;2023-06-24T11:47:33;6.05;;;3.05;;
6348;SDS011;3207;42.648;23.406;2023-06-24T11:50:00;3.58;;;3.28;;
6348;SDS011;3207;42.648;23.406;2023-06-24T11:52:41;3.25;;;3.05;;
6348;SDS011;3207;42.648;23.406;2023-06-24T11:55:14;3.67;;;3.22;;
6348;SDS011;3207;42.648;23.406;2023-06-24T11:57:50;3.38;;;3.03;;
6348;SDS011;3207;42.648;23.406;2023-06-24T12:00:19;5.90;;;2.70;;
6348;SDS011;3207;42.648;23.406;2023-06-24T12:02:58;3.03;;;2.83;;
6348;SDS011;3207;42.648;23.406;2023-06-24T12:05:27;4.70;;;2.63;;
6348;SDS011;3207;42.648;23.406;2023-06-24T12:07:55;3.40;;;3.10;;
6348;SDS011;3207;42.648;23.406;2023-06-24T12:10:23;3.83;;;3.20;;
6348;SDS011;3207;42.648;23.406;2023-06-24T12:12:51;2.95;;;2.70;;
6348;SDS011;3207;42.648;23.406;2023-06-24T12:15:19;3.42;;;3.00;;
6348;SDS011;3207;42.648;23.406;2023-06-24T12:17:47;4.90;;;3.25;;
6348;SDS011;3207;42.648;23.406;2023-06-24T12:20:14;4.68;;;3.47;;
6348;SDS011;3207;42.648;23.406;2023-06-24T12:22:43;5.20;;;3.42;;
6348;SDS011;3207;42.648;23.406;2023-06-24T12:25:10;5.00;;;3.15;;
6348;SDS011;3207;42.648;23.406;2023-06-24T12:27:37;7.55;;;6.90;;
6348;SDS011;3207;42.648;23.406;2023-06-24T12:30:07;2.95;;;2.75;;
6348;SDS011;3207;42.648;23.406;2023-06-24T12:32:35;3.17;;;2.85;;
6348;SDS011;3207;42.648;23.406;2023-06-24T12:35:02;3.72;;;3.08;;
6348;SDS011;3207;42.648;23.406;2023-06-24T12:37:30;2.65;;;2.45;;
6348;SDS011;3207;42.648;23.406;2023-06-24T12:39:57;3.50;;;3.20;;
6348;SDS011;3207;42.648;23.406;2023-06-24T12:42:24;3.78;;;3.33;;
6348;SDS011;3207;42.648;23.406;2023-06-24T12:44:51;3.58;;;3.28;;
6348;SDS011;3207;42.648;23.406;2023-06-24T12:47:20;4.03;;;3.65;;
6348;SDS011;3207;42.648;23.406;2023-06-24T12:49:47;4.88;;;4.28;;
6348;SDS011;3207;42.648;23.406;2023-06-24T12:52:15;3.67;;;3.38;;
6348;SDS011;3207;42.648;23.406;2023-06-24T12:54:42;4.90;;;4.43;;
6348;SDS011;3207;42.648;23.406;2023-06-24T12:57:09;6.05;;;3.78;;
6348;SDS011;3207;42.648;23.406;2023-06-24T12:59:36;3.75;;;3.38;;
6348;SDS011;3207;42.648;23.406;2023-06-24T13:02:03;4.18;;;3.55;;
6348;SDS011;3207;42.648;23.406;2023-06-24T13:04:31;4.63;;;3.40;;
6348;SDS011;3207;42.648;23.406;2023-06-24T13:06:58;3.80;;;3.50;;
6348;SDS011;3207;42.648;23.406;2023-06-24T13:09:25;3.22;;;2.95;;
6348;SDS011;3207;42.648;23.406;2023-06-24T13:11:52;5.80;;;3.33;;
6348;SDS011;3207;42.648;23.406;2023-06-24T13:14:19;5.40;;;3.00;;
6348;SDS011;3207;42.648;23.406;2023-06-24T13:16:45;3.08;;;2.88;;
6348;SDS011;3207;42.648;23.406;2023-06-24T13:19:12;3.15;;;2.85;;
6348;SDS011;3207;42.648;23.406;2023-06-24T13:21:40;4.15;;;2.78;;
6348;SDS011;3207;42.648;23.406;2023-06-24T13:24:07;4.05;;;3.30;;
6348;SDS011;3207;42.648;23.406;2023-06-24T13:26:34;4.85;;;3.60;;
6348;SDS011;3207;42.648;23.406;2023-06-24T13:29:01;4.97;;;2.90;;
6348;SDS011;3207;42.648;23.406;2023-06-24T13:31:31;3.00;;;2.72;;
6348;SDS011;3207;42.648;23.406;2023-06-24T13:33:58;6.10;;;2.60;;
6348;SDS011;3207;42.648;23.406;2023-06-24T13:36:27;2.80;;;2.60;;
6348;SDS011;3207;42.648;23.406;2023-06-24T13:38:58;3.47;;;3.17;;
6348;SDS011;3207;42.648;23.406;2023-06-24T13:41:25;5.38;;;3.05;;
6348;SDS011;3207;42.648;23.406;2023-06-24T13:43:54;4.72;;;3.17;;
6348;SDS011;3207;42.648;23.406;2023-06-24T13:46:22;4.00;;;2.92;;
6348;SDS011;3207;42.648;23.406;2023-06-24T13:48:49;4.85;;;4.38;;
6348;SDS011;3207;42.648;23.406;2023-06-24T13:51:19;3.83;;;3.47;;
6348;SDS011;3207;42.648;23.406;2023-06-24T13:53:46;7.28;;;3.60;;
6348;SDS011;3207;42.648;23.406;2023-06-24T13:56:15;3.17;;;2.92;;
6348;SDS011;3207;42.648;23.406;2023-06-24T13:58:43;5.07;;;3.22;;
6348;SDS011;3207;42.648;23.406;2023-06-24T14:01:10;3.45;;;3.25;;
6348;SDS011;3207;42.648;23.406;2023-06-24T14:03:38;5.45;;;3.55;;
6348;SDS011;3207;42.648;23.406;2023-06-24T14:06:06;3.97;;;3.67;;
6348;SDS011;3207;42.648;23.406;2023-06-24T14:08:34;4.00;;;3.33;;
6348;SDS011;3207;42.648;23.406;2023-06-24T14:11:02;3.60;;;3.30;;
6348;SDS011;3207;42.648;23.406;2023-06-24T14:13:30;6.50;;;3.83;;
6348;SDS011;3207;42.648;23.406;2023-06-24T14:15:57;5.57;;;3.40;;
6348;SDS011;3207;42.648;23.406;2023-06-24T14:18:24;10.07;;;3.70;;
6348;SDS011;3207;42.648;23.406;2023-06-24T14:20:51;4.45;;;4.05;;
6348;SDS011;3207;42.648;23.406;2023-06-24T14:23:22;4.30;;;3.90;;
6348;SDS011;3207;42.648;23.406;2023-06-24T14:25:50;6.07;;;3.45;;
6348;SDS011;3207;42.648;23.406;2023-06-24T14:28:17;4.50;;;3.58;;
6348;SDS011;3207;42.648;23.406;2023-06-24T14:30:46;4.13;;;3.03;;
6348;SDS011;3207;42.648;23.406;2023-06-24T14:33:13;4.70;;;3.80;;
6348;SDS011;3207;42.648;23.406;2023-06-24T14:35:40;11.75;;;3.80;;
6348;SDS011;3207;42.648;23.406;2023-06-24T14:38:07;4.78;;;4.28;;
6348;SDS011;3207;42.648;23.406;2023-06-24T14:40:34;3.55;;;3.22;;
6348;SDS011;3207;42.648;23.406;2023-06-24T14:43:00;5.40;;;3.72;;
6348;SDS011;3207;42.648;23.406;2023-06-24T14:45:27;3.97;;;3.67;;
6348;SDS011;3207;42.648;23.406;2023-06-24T14:47:55;5.68;;;4.22;;
6348;SDS011;3207;42.648;23.406;2023-06-24T14:50:23;4.88;;;3.90;;
6348;SDS011;3207;42.648;23.406;2023-06-24T14:52:50;5.65;;;3.97;;
6348;SDS011;3207;42.648;23.406;2023-06-24T14:55:17;4.45;;;3.88;;
6348;SDS011;3207;42.648;23.406;2023-06-24T14:57:43;4.05;;;3.50;;
6348;SDS011;3207;42.648;23.406;2023-06-24T15:00:11;4.25;;;3.42;;
6348;SDS011;3207;42.648;23.406;2023-06-24T15:02:38;5.68;;;4.28;;
6348;SDS011;3207;42.648;23.406;2023-06-24T15:05:07;6.65;;;4.28;;
6348;SDS011;3207;42.648;23.406;2023-06-24T15:07:34;3.70;;;3.10;;
6348;SDS011;3207;42.648;23.406;2023-06-24T15:10:03;2.45;;;2.25;;
6348;SDS011;3207;42.648;23.406;2023-06-24T15:12:31;3.13;;;2.88;;